Time;durP1;ratioP1;P1;durP2;ratioP2;P2;SDS_P1;SDS_P2;PMS_P1;PMS_P2;Temp;Humidity;BMP_temperature;BMP_pressure;BME280_temperature;BME280_humidity;BME280_pressure;Samples;Min_cycle;Max_cycle;Signal;HPM_P1;HPM_P2
2021/08/03 00:09:12;;;;;;;5.97;5.30;;;;;;;11.65;78.62;99273.38;514945;1089;116302;-63
2021/08/03 00:19:24;;;;;;;8.50;5.40;;;;;;;11.55;78.78;99281.12;515029;1089;116433;-64
2021/08/03 00:29:31;;;;;;;8.33;5.90;;;;;;;11.44;79.16;99294.20;532592;1089;116075;-64
2021/08/03 00:39:38;;;;;;;7.03;6.33;;;;;;;11.31;78.74;99289.84;532570;1088;116052;-63
2021/08/03 00:49:46;;;;;;;6.78;5.60;;;;;;;11.27;79.25;99304.13;531862;1090;117159;-63
2021/08/03 00:59:53;;;;;;;7.03;6.30;;;;;;;11.28;79.50;99300.55;532557;1090;116312;-64
2021/08/03 01:10:10;;;;;;;7.67;6.97;;;;;;;11.26;79.99;99307.71;532541;1088;116227;-66
2021/08/03 01:20:25;;;;;;;6.70;5.67;;;;;;;11.18;79.23;99303.01;526711;1088;116846;-64
2021/08/03 01:30:35;;;;;;;7.37;6.23;;;;;;;11.04;79.40;99298.73;532521;1089;117636;-64
2021/08/03 01:40:46;;;;;;;6.07;5.47;;;;;;;11.00;80.13;99304.30;531807;1090;117405;-64
2021/08/03 01:50:55;;;;;;;7.23;6.50;;;;;;;10.92;79.96;99310.95;532587;1088;115779;-64
2021/08/03 02:01:02;;;;;;;9.37;6.63;;;;;;;10.83;79.42;99308.11;532580;1089;117726;-63
2021/08/03 02:11:09;;;;;;;6.97;6.27;;;;;;;10.86;80.42;99302.66;531902;1088;116632;-64
2021/08/03 02:21:19;;;;;;;6.57;5.93;;;;;;;10.85;80.22;99314.95;532514;1088;115974;-64
2021/08/03 02:31:32;;;;;;;8.57;6.93;;;;;;;10.95;80.43;99327.44;531837;1089;116590;-64
2021/08/03 02:41:39;;;;;;;11.00;8.47;;;;;;;10.97;79.96;99321.14;532619;1089;116881;-64
2021/08/03 02:51:47;;;;;;;9.73;8.73;;;;;;;11.19;80.48;99319.59;532580;1089;115978;-63
2021/08/03 03:01:55;;;;;;;9.05;8.15;;;;;;;11.30;80.57;99324.11;531860;1088;117380;-63
2021/08/03 03:12:03;;;;;;;9.75;7.78;;;;;;;11.24;80.14;99337.67;532596;1089;117140;-64
2021/08/03 03:22:13;;;;;;;13.17;8.37;;;;;;;11.26;79.67;99348.94;532595;1089;116604;-64
2021/08/03 03:32:21;;;;;;;11.63;9.33;;;;;;;11.46;80.12;99348.33;531870;1090;116732;-63
2021/08/03 03:42:33;;;;;;;8.78;7.88;;;;;;;12.02;79.83;99346.15;532570;1088;117104;-63
2021/08/03 03:52:48;;;;;;;10.17;7.77;;;;;;;12.73;79.45;99358.39;531805;1090;117989;-64
2021/08/03 04:02:56;;;;;;;10.27;7.47;;;;;;;13.33;78.63;99371.33;532586;1089;117052;-63
2021/08/03 04:13:04;;;;;;;10.30;7.10;;;;;;;14.12;77.60;99377.39;532440;1088;116484;-63
2021/08/03 04:23:11;;;;;;;9.00;7.13;;;;;;;16.21;78.26;99366.53;531790;1089;116495;-64
2021/08/03 04:33:17;;;;;;;6.03;5.33;;;;;;;16.98;73.44;99378.94;532499;1089;117240;-63
2021/08/03 04:43:24;;;;;;;7.43;6.10;;;;;;;17.25;72.11;99376.49;532202;1089;116324;-63
2021/08/03 04:53:31;;;;;;;7.80;6.13;;;;;;;17.34;71.23;99373.78;532489;1090;177961;-63
2021/08/03 05:03:38;;;;;;;8.80;5.13;;;;;;;24.32;68.60;99371.31;532567;1089;117430;-63
2021/08/03 05:13:45;;;;;;;5.45;3.98;;;;;;;30.47;58.59;99365.80;531892;1089;117215;-63
2021/08/03 05:23:51;;;;;;;4.93;3.90;;;;;;;31.09;49.05;99369.05;532626;1088;116680;-63
2021/08/03 05:34:00;;;;;;;7.43;3.60;;;;;;;26.34;50.83;99376.73;532591;1088;115939;-63
2021/08/03 05:44:07;;;;;;;5.77;4.10;;;;;;;23.48;52.78;99383.44;531813;1089;116479;-63
2021/08/03 05:54:12;;;;;;;;;;;;;;;22.69;54.17;99376.80;532614;1088;116503;-64
2021/08/03 06:04:18;;;;;;;5.67;4.20;;;;;;;22.95;54.82;99377.17;532831;1089;103698;-63
2021/08/03 06:14:34;;;;;;;5.07;4.67;;;;;;;23.54;53.76;99387.21;532603;1089;117412;-63
2021/08/03 06:24:43;;;;;;;4.80;4.30;;;;;;;23.60;53.16;99391.80;532488;1089;116606;-62
2021/08/03 06:34:50;;;;;;;6.83;4.73;;;;;;;22.03;54.24;99387.02;531871;1089;116949;-62
2021/08/03 06:45:30;;;;;;;6.10;4.57;;;;;;;21.69;54.88;99383.71;532618;1088;116336;-62
2021/08/03 06:55:43;;;;;;;4.33;3.83;;;;;;;26.00;52.28;99395.50;531803;1090;116457;-62
2021/08/03 07:05:53;;;;;;;6.73;4.20;;;;;;;27.11;49.58;99400.46;532573;1088;117714;-62
2021/08/03 07:16:02;;;;;;;3.27;3.07;;;;;;;26.76;48.40;99410.65;524780;1089;118579;-61
2021/08/03 07:26:08;;;;;;;5.30;4.40;;;;;;;33.57;44.48;99405.87;531365;1090;116056;-61
2021/08/03 07:36:17;;;;;;;5.65;3.60;;;;;;;33.06;39.05;99398.70;532556;1089;116096;-67
2021/08/03 07:46:23;;;;;;;3.30;3.00;;;;;;;36.86;38.35;99400.42;532539;1088;116944;-58
2021/08/03 07:56:30;;;;;;;10.75;3.58;;;;;;;40.70;31.89;99388.86;532577;1088;116683;-61
2021/08/03 08:06:37;;;;;;;2.30;2.20;;;;;;;38.76;30.90;99388.45;529992;1089;117124;-60
2021/08/03 08:16:55;;;;;;;3.05;2.25;;;;;;;36.60;31.03;99382.17;531807;1089;116130;-59
2021/08/03 08:27:02;;;;;;;3.73;2.43;;;;;;;34.44;31.70;99381.31;532578;1088;116513;-59
2021/08/03 08:37:10;;;;;;;2.10;1.97;;;;;;;33.34;32.02;99378.64;532594;1088;116880;-56
2021/08/03 08:47:17;;;;;;;7.50;2.10;;;;;;;32.16;32.39;99392.20;531914;1089;116285;-58
2021/08/03 08:57:24;;;;;;;3.10;1.65;;;;;;;31.55;31.93;99392.75;532551;1089;116740;-61
2021/08/03 09:07:31;;;;;;;1.67;1.40;;;;;;;30.57;32.42;99392.28;531863;1088;117802;-60
2021/08/03 09:17:37;;;;;;;2.75;1.60;;;;;;;30.22;33.22;99393.08;532592;1088;118271;-63
2021/08/03 09:27:47;;;;;;;7.63;2.03;;;;;;;29.37;32.41;99392.99;532588;1089;116863;-64
2021/08/03 09:37:56;;;;;;;1.33;1.23;;;;;;;28.63;33.68;99394.61;531813;1088;116906;-64
2021/08/03 09:48:16;;;;;;;2.60;0.90;;;;;;;28.23;33.31;99389.55;532584;1089;116663;-63
2021/08/03 09:58:23;;;;;;;4.70;1.90;;;;;;;28.02;34.25;99388.02;532552;1090;116578;-61
2021/08/03 10:08:28;;;;;;;;;;;;;;;27.88;34.08;99384.58;532617;1088;116152;-68
2021/08/03 10:18:38;;;;;;;4.10;1.30;;;;;;;27.74;34.08;99387.36;532881;1089;101799;-61
2021/08/03 10:28:44;;;;;;;1.30;0.90;;;;;;;27.45;33.50;99376.06;531835;1088;116175;-65
2021/08/03 10:39:09;;;;;;;6.53;1.28;;;;;;;26.83;34.53;99363.00;532554;1088;117097;-60
2021/08/03 10:49:36;;;;;;;3.20;1.10;;;;;;;26.57;34.82;99370.09;532657;1089;116380;-64
2021/08/03 10:59:44;;;;;;;2.40;1.10;;;;;;;26.37;34.15;99364.71;532553;1088;116878;-65
2021/08/03 11:09:51;;;;;;;1.00;1.00;;;;;;;26.48;34.10;99357.88;532582;1088;116275;-66
2021/08/03 11:19:57;;;;;;;3.48;1.65;;;;;;;26.24;35.51;99346.72;531810;1089;117071;-61
2021/08/03 11:30:11;;;;;;;2.00;1.00;;;;;;;25.87;35.30;99347.08;532554;1088;117191;-62
2021/08/03 11:40:22;;;;;;;3.93;1.40;;;;;;;25.73;36.28;99354.28;532567;1090;115820;-64
2021/08/03 11:50:39;;;;;;;1.73;1.18;;;;;;;25.63;36.57;99338.56;532614;1088;116318;-61
2021/08/03 12:00:45;;;;;;;4.40;1.80;;;;;;;26.67;36.35;99327.42;532528;1088;116607;-62
2021/08/03 12:10:52;;;;;;;2.75;2.23;;;;;;;27.06;34.76;99332.89;531784;1089;116233;-59
2021/08/03 12:20:59;;;;;;;2.03;0.83;;;;;;;26.62;35.43;99324.52;532588;1088;117132;-66
2021/08/03 12:31:20;;;;;;;2.30;1.40;;;;;;;26.57;36.20;99317.06;532472;1088;117397;-64
2021/08/03 12:41:30;;;;;;;3.75;1.00;;;;;;;25.96;35.94;99308.20;532516;1089;116472;-67
2021/08/03 12:51:37;;;;;;;1.37;1.27;;;;;;;26.23;36.35;99293.95;532536;1089;116265;-63
2021/08/03 13:01:46;;;;;;;1.29;1.14;;;;;;;26.15;36.72;99281.52;513917;1089;10001157;-63
2021/08/03 13:11:52;;;;;;;1.63;1.53;;;;;;;25.94;36.78;99279.84;532456;1089;116715;-71
2021/08/03 13:22:01;;;;;;;1.83;1.10;;;;;;;25.54;36.75;99265.36;523987;1090;115927;-72
2021/08/03 13:32:08;;;;;;;4.30;1.30;;;;;;;25.21;37.35;99260.70;525741;1089;116397;-73
2021/08/03 13:42:15;;;;;;;1.38;1.23;;;;;;;25.16;37.42;99258.63;521062;1088;116011;-73
2021/08/03 13:52:21;;;;;;;1.57;1.23;;;;;;;24.84;36.99;99250.25;532542;1089;116217;-67
2021/08/03 14:02:28;;;;;;;1.33;1.23;;;;;;;24.53;37.16;99239.96;532546;1089;116229;-66
2021/08/03 14:12:35;;;;;;;4.58;1.23;;;;;;;24.42;37.28;99249.41;532562;1088;117823;-58
2021/08/03 14:22:42;;;;;;;4.37;1.37;;;;;;;24.62;37.94;99226.16;531716;1090;117614;-61
2021/08/03 14:32:49;;;;;;;1.75;1.65;;;;;;;24.57;37.85;99223.27;532480;1089;116748;-60
2021/08/03 14:42:56;;;;;;;2.50;1.00;;;;;;;24.35;38.13;99222.52;531872;1090;116440;-64
2021/08/03 14:53:06;;;;;;;1.10;1.00;;;;;;;24.44;38.10;99207.10;531728;1089;117033;-58
2021/08/03 15:03:13;;;;;;;1.53;1.43;;;;;;;24.19;38.39;99207.59;532478;1090;116075;-58
2021/08/03 15:13:20;;;;;;;1.17;1.10;;;;;;;24.16;38.97;99206.13;514548;1088;10001600;-58
2021/08/03 15:23:27;;;;;;;6.97;1.80;;;;;;;23.97;39.96;99194.22;530965;1088;117335;-58
2021/08/03 15:33:33;;;;;;;8.00;1.70;;;;;;;23.82;41.03;99196.15;532318;1089;116372;-58
2021/08/03 15:43:42;;;;;;;4.37;1.30;;;;;;;23.64;42.10;99187.56;531679;1088;116417;-58
2021/08/03 15:53:49;;;;;;;2.75;1.43;;;;;;;23.75;41.89;99185.38;532420;1089;115973;-60
2021/08/03 16:03:56;;;;;;;2.13;1.03;;;;;;;23.82;40.16;99175.55;532354;1088;116161;-65
2021/08/03 16:14:03;;;;;;;3.35;1.20;;;;;;;23.82;40.84;99183.59;531567;1089;116052;-65
2021/08/03 16:24:11;;;;;;;1.40;1.23;;;;;;;23.41;40.90;99185.12;532482;1089;116106;-65
2021/08/03 16:34:19;;;;;;;2.30;1.40;;;;;;;23.17;40.60;99187.13;532346;1089;115761;-65
2021/08/03 16:44:27;;;;;;;1.67;1.57;;;;;;;23.12;41.13;99178.83;532144;1089;116352;-65
2021/08/03 16:54:38;;;;;;;1.15;1.13;;;;;;;22.62;41.58;99182.20;532398;1088;115695;-66
2021/08/03 17:05:01;;;;;;;2.10;1.50;;;;;;;22.28;42.63;99185.41;531638;1089;116417;-66
2021/08/03 17:15:09;;;;;;;1.77;1.67;;;;;;;22.02;43.69;99186.70;523609;1088;115900;-65
2021/08/03 17:25:19;;;;;;;7.40;1.85;;;;;;;21.77;44.53;99181.61;532522;1088;115847;-65
2021/08/03 17:35:26;;;;;;;1.60;1.50;;;;;;;21.53;45.25;99205.67;532523;1089;115863;-66
2021/08/03 17:45:33;;;;;;;1.60;1.50;;;;;;;21.07;46.81;99208.34;532567;1090;116789;-66
2021/08/03 17:55:43;;;;;;;3.20;1.70;;;;;;;20.67;48.47;99211.83;531741;1090;117360;-66
2021/08/03 18:05:51;;;;;;;2.30;2.10;;;;;;;20.32;49.84;99215.80;532570;1088;116667;-66
2021/08/03 18:15:57;;;;;;;;;;;;;;;19.98;51.05;99226.53;532602;1089;115855;-66
2021/08/03 18:26:08;;;;;;;3.05;2.10;;;;;;;19.62;51.83;99220.69;514135;1089;10001173;-66
2021/08/03 18:36:18;;;;;;;7.70;3.27;;;;;;;19.27;53.48;99224.31;532468;1088;117705;-65
2021/08/03 18:46:32;;;;;;;5.00;2.85;;;;;;;18.91;55.12;99222.69;531862;1088;116967;-65
2021/08/03 18:56:39;;;;;;;3.85;2.98;;;;;;;18.56;56.38;99223.75;532182;1089;116509;-65
2021/08/03 19:07:17;;;;;;;6.60;3.70;;;;;;;18.25;57.13;99238.38;532301;1089;116241;-59
2021/08/03 19:17:34;;;;;;;4.83;4.33;;;;;;;17.94;58.19;99246.77;532250;1089;116292;-61
2021/08/03 19:27:45;;;;;;;5.30;3.93;;;;;;;17.76;58.97;99257.41;532406;1089;116240;-61
2021/08/03 19:37:52;;;;;;;5.23;4.27;;;;;;;17.61;59.58;99265.92;531705;1089;116911;-61
2021/08/03 19:48:03;;;;;;;10.43;5.83;;;;;;;17.49;60.61;99272.45;532505;1089;116365;-61
2021/08/03 19:58:13;;;;;;;7.67;4.90;;;;;;;17.28;61.27;99275.37;532485;1088;116393;-61
2021/08/03 20:08:20;;;;;;;7.17;4.97;;;;;;;17.11;61.84;99277.85;531750;1088;116485;-60
2021/08/03 20:18:29;;;;;;;7.53;6.60;;;;;;;16.99;62.30;99292.27;532425;1088;116439;-61
2021/08/03 20:28:42;;;;;;;10.00;5.97;;;;;;;16.91;62.59;99291.17;531612;1089;116213;-61
2021/08/03 20:38:57;;;;;;;7.87;5.13;;;;;;;16.81;62.84;99290.38;532449;1088;116395;-60
2021/08/03 20:49:04;;;;;;;6.03;5.43;;;;;;;16.78;62.71;99296.80;532551;1088;116808;-60
2021/08/03 20:59:11;;;;;;;6.27;5.33;;;;;;;16.84;63.17;99297.22;531896;1089;117129;-60
2021/08/03 21:09:19;;;;;;;6.03;4.80;;;;;;;16.79;63.67;99308.26;522481;1090;116234;-60
2021/08/03 21:19:26;;;;;;;5.87;5.30;;;;;;;16.81;63.82;99314.24;515056;1090;116577;-60
2021/08/03 21:29:33;;;;;;;7.10;5.75;;;;;;;16.85;64.24;99357.22;515684;1089;116587;-61
2021/08/03 21:39:41;;;;;;;6.23;4.23;;;;;;;16.78;63.98;99351.66;517277;1090;115743;-60
2021/08/03 21:49:48;;;;;;;5.60;4.10;;;;;;;16.83;65.38;99360.00;515428;1088;116336;-61
2021/08/03 21:59:55;;;;;;;11.17;5.27;;;;;;;16.56;65.88;99345.72;532454;1090;116715;-61
2021/08/03 22:10:01;;;;;;;3.70;3.40;;;;;;;16.25;66.84;99333.51;529262;1088;116242;-61
2021/08/03 22:20:10;;;;;;;6.80;3.97;;;;;;;16.00;67.49;99331.45;531856;1088;116945;-61
2021/08/03 22:30:17;;;;;;;4.33;3.80;;;;;;;15.87;68.34;99323.73;532601;1089;116020;-61
2021/08/03 22:40:24;;;;;;;4.20;3.80;;;;;;;15.89;68.89;99319.14;532513;1089;116484;-61
2021/08/03 22:50:32;;;;;;;7.47;3.97;;;;;;;15.91;69.64;99315.41;532569;1089;116457;-60
2021/08/03 23:00:39;;;;;;;4.50;4.10;;;;;;;15.85;69.93;99307.16;532552;1090;117430;-60
2021/08/03 23:10:46;;;;;;;3.00;2.80;;;;;;;15.72;70.61;99299.48;531853;1089;117592;-60
2021/08/03 23:20:53;;;;;;;3.87;2.67;;;;;;;15.67;70.34;99284.02;532560;1089;116539;-62
2021/08/03 23:31:00;;;;;;;3.23;2.93;;;;;;;15.60;70.41;99274.98;532552;1090;115999;-60
2021/08/03 23:41:06;;;;;;;2.90;2.70;;;;;;;15.58;70.61;99256.59;531905;1089;115918;-60
2021/08/03 23:51:15;;;;;;;2.93;2.63;;;;;;;15.64;71.23;99279.02;532541;1089;116907;-60
